Time;durP1;ratioP1;P1;durP2;ratioP2;P2;SDS_P1;SDS_P2;PMS_P1;PMS_P2;Temp;Humidity;BMP_temperature;BMP_pressure;BME280_temperature;BME280_humidity;BME280_pressure;Samples;Min_cycle;Max_cycle;Signal;HPM_P1;HPM_P2
2023/09/23 00:00:07;;;;;;;4.20;3.80;;;11.30;99.90;;;;;;5007335;28;20270;-78
2023/09/23 00:02:33;;;;;;;6.07;4.97;;;11.40;99.90;;;;;;5006066;28;20125;-78
2023/09/23 00:04:59;;;;;;;4.70;4.18;;;11.40;99.90;;;;;;5003906;28;20358;-79
2023/09/23 00:07:24;;;;;;;5.93;4.15;;;11.50;99.90;;;;;;5004638;28;20655;-78
2023/09/23 00:09:51;;;;;;;4.40;4.03;;;11.50;99.90;;;;;;5003985;28;20101;-77
2023/09/23 00:12:16;;;;;;;4.28;3.88;;;11.50;99.90;;;;;;5009833;28;20034;-78
2023/09/23 00:14:42;;;;;;;4.13;3.75;;;11.50;99.90;;;;;;5007603;28;20149;-77
2023/09/23 00:17:07;;;;;;;4.50;4.10;;;11.60;99.90;;;;;;5000622;28;20318;-78
2023/09/23 00:19:34;;;;;;;4.38;3.97;;;11.60;99.90;;;;;;5001888;28;20018;-78
2023/09/23 00:21:59;;;;;;;5.70;4.55;;;11.60;99.90;;;;;;5009926;28;20026;-79
2023/09/23 00:24:25;;;;;;;4.78;4.13;;;11.70;99.90;;;;;;5011772;28;20025;-78
2023/09/23 00:26:52;;;;;;;5.68;4.60;;;11.70;99.90;;;;;;5002146;28;20031;-78
2023/09/23 00:29:18;;;;;;;4.97;4.28;;;11.70;99.90;;;;;;5011269;28;20053;-78
2023/09/23 00:31:43;;;;;;;4.65;4.22;;;11.80;99.90;;;;;;5001133;28;20076;-78
2023/09/23 00:34:09;;;;;;;4.22;3.83;;;11.80;99.90;;;;;;5008123;28;20034;-78
2023/09/23 00:36:35;;;;;;;4.63;4.18;;;11.80;99.90;;;;;;5012407;28;20026;-78
2023/09/23 00:39:02;;;;;;;4.30;3.90;;;11.80;99.90;;;;;;5000531;28;20566;-78
2023/09/23 00:41:28;;;;;;;4.50;4.03;;;11.90;99.90;;;;;;5007777;28;20541;-78
2023/09/23 00:43:54;;;;;;;5.35;3.90;;;11.80;99.90;;;;;;5008915;28;20038;-77
2023/09/23 00:46:22;;;;;;;5.35;4.05;;;11.90;99.90;;;;;;4999527;28;20030;-77
2023/09/23 00:48:50;;;;;;;3.53;3.22;;;11.90;99.90;;;;;;5008775;28;20029;-78
2023/09/23 00:51:17;;;;;;;4.18;3.78;;;11.90;99.90;;;;;;5004011;28;20030;-78
2023/09/23 00:53:44;;;;;;;6.32;4.05;;;11.90;99.90;;;;;;5012839;28;20029;-78
2023/09/23 00:56:11;;;;;;;4.38;3.40;;;11.90;99.90;;;;;;5001049;28;20025;-78
2023/09/23 00:58:37;;;;;;;3.65;3.33;;;12.00;99.90;;;;;;5009878;28;20021;-78
2023/09/23 01:01:05;;;;;;;4.72;4.22;;;12.00;99.90;;;;;;5002593;28;20037;-78
2023/09/23 01:03:31;;;;;;;5.88;4.13;;;12.00;99.90;;;;;;5008867;28;20419;-77
2023/09/23 01:06:04;;;;;;;3.60;3.30;;;12.00;99.90;;;;;;5016282;28;20118;-78
2023/09/23 01:08:30;;;;;;;4.78;4.10;;;12.00;99.90;;;;;;5003795;28;20034;-78
2023/09/23 01:10:56;;;;;;;4.00;3.50;;;12.00;99.90;;;;;;5000569;28;20037;-78
2023/09/23 01:13:24;;;;;;;4.60;3.60;;;12.00;99.90;;;;;;5003470;28;20093;-78
2023/09/23 01:15:51;;;;;;;4.40;4.00;;;12.00;99.90;;;;;;4998732;28;20073;-78
2023/09/23 01:18:17;;;;;;;3.63;3.33;;;12.00;99.90;;;;;;5014807;28;20104;-79
2023/09/23 01:20:47;;;;;;;4.07;3.25;;;12.00;99.90;;;;;;5012029;28;20049;-80
2023/09/23 01:23:13;;;;;;;4.43;3.20;;;12.00;99.90;;;;;;5011842;28;20096;-80
2023/09/23 01:25:39;;;;;;;4.88;3.88;;;12.00;99.90;;;;;;5010359;28;20057;-80
2023/09/23 01:28:13;;;;;;;4.07;3.33;;;12.10;99.90;;;;;;5008540;28;20021;-80
2023/09/23 01:30:45;;;;;;;4.45;4.05;;;12.10;99.90;;;;;;5004085;28;20034;-79
2023/09/23 01:33:13;;;;;;;6.18;3.47;;;12.20;99.90;;;;;;5002797;28;20064;-80
2023/09/23 01:35:40;;;;;;;4.07;3.55;;;12.20;99.90;;;;;;5004089;28;20036;-81
2023/09/23 01:38:06;;;;;;;4.15;3.75;;;12.20;99.90;;;;;;5004925;28;20056;-80
2023/09/23 01:40:36;;;;;;;4.15;3.10;;;12.20;99.90;;;;;;5002772;28;20030;-80
2023/09/23 01:43:02;;;;;;;4.10;3.70;;;12.20;99.90;;;;;;5014373;28;20025;-79
2023/09/23 01:45:28;;;;;;;6.05;3.83;;;12.20;99.90;;;;;;5010803;28;20141;-80
2023/09/23 01:47:56;;;;;;;4.68;4.05;;;12.20;99.90;;;;;;5012155;28;20038;-80
2023/09/23 01:50:26;;;;;;;5.10;4.50;;;12.20;99.90;;;;;;4998507;28;20502;-80
2023/09/23 01:52:52;;;;;;;5.32;4.05;;;12.20;99.90;;;;;;5006975;28;20033;-79
2023/09/23 01:55:18;;;;;;;4.53;4.13;;;12.20;99.90;;;;;;5015225;28;20031;-80
2023/09/23 01:57:47;;;;;;;4.90;4.28;;;12.30;99.90;;;;;;5005012;28;20097;-80
2023/09/23 02:00:26;;;;;;;4.63;4.22;;;12.30;99.90;;;;;;5002466;28;20018;-80
2023/09/23 02:02:55;;;;;;;5.00;4.60;;;12.30;99.90;;;;;;5001398;28;20061;-80
2023/09/23 02:05:24;;;;;;;4.25;3.85;;;12.30;99.90;;;;;;5006599;28;20108;-80
2023/09/23 02:07:50;;;;;;;4.45;4.05;;;12.30;99.90;;;;;;5003037;28;20030;-80
2023/09/23 02:10:17;;;;;;;6.13;4.55;;;12.30;99.90;;;;;;5003533;28;20022;-81
2023/09/23 02:12:43;;;;;;;5.50;4.78;;;12.30;99.90;;;;;;5004017;28;20038;-80
2023/09/23 02:15:14;;;;;;;6.70;5.38;;;12.30;99.90;;;;;;5004502;28;20064;-80
2023/09/23 02:17:42;;;;;;;5.20;4.80;;;12.30;99.90;;;;;;4998116;28;20057;-80
2023/09/23 02:20:22;;;;;;;4.78;4.30;;;12.30;99.90;;;;;;5001208;28;20019;-80
2023/09/23 02:22:55;;;;;;;5.05;4.57;;;12.30;99.90;;;;;;5000646;28;20037;-81
2023/09/23 02:25:24;;;;;;;6.45;5.50;;;12.30;99.90;;;;;;4999540;28;20030;-81
2023/09/23 02:27:51;;;;;;;5.38;4.88;;;12.30;99.90;;;;;;5004146;28;20037;-80
2023/09/23 02:30:17;;;;;;;6.22;5.63;;;12.30;99.90;;;;;;5009792;28;20521;-81
2023/09/23 02:32:45;;;;;;;6.65;5.93;;;12.30;99.90;;;;;;5000865;28;20057;-80
2023/09/23 02:35:12;;;;;;;6.05;5.45;;;12.30;99.90;;;;;;5009003;28;20025;-81
2023/09/23 02:37:44;;;;;;;7.63;5.90;;;12.30;99.90;;;;;;5003758;28;20033;-81
2023/09/23 02:40:14;;;;;;;7.50;6.28;;;12.30;99.90;;;;;;5006129;28;20030;-79
2023/09/23 02:42:40;;;;;;;6.50;5.90;;;12.40;99.90;;;;;;5006339;28;20103;-80
2023/09/23 02:45:08;;;;;;;5.82;5.30;;;12.40;99.90;;;;;;5011653;28;20033;-81
2023/09/23 02:47:34;;;;;;;6.88;6.28;;;12.40;99.90;;;;;;5007253;28;20525;-81
2023/09/23 02:50:00;;;;;;;6.38;5.72;;;12.40;99.90;;;;;;5004723;28;20032;-78
2023/09/23 02:52:26;;;;;;;7.85;5.75;;;12.40;99.90;;;;;;5005427;28;20025;-79
2023/09/23 02:54:54;;;;;;;8.80;7.03;;;12.40;99.90;;;;;;5007645;28;20023;-78
2023/09/23 02:57:23;;;;;;;8.18;7.40;;;12.40;99.90;;;;;;5012086;28;20511;-78
2023/09/23 02:59:56;;;;;;;6.72;5.95;;;12.40;99.90;;;;;;5006793;28;20040;-79
2023/09/23 03:02:26;;;;;;;8.15;6.85;;;12.40;99.90;;;;;;5009055;28;20056;-79
2023/09/23 03:04:58;;;;;;;9.13;7.70;;;12.40;99.90;;;;;;5007667;28;20168;-79
2023/09/23 03:07:33;;;;;;;10.70;9.13;;;12.40;99.90;;;;;;5002685;28;20018;-79
2023/09/23 03:10:01;;;;;;;9.07;8.13;;;12.40;99.90;;;;;;5003130;28;20032;-80
2023/09/23 03:12:38;;;;;;;8.45;7.65;;;12.40;99.90;;;;;;5006691;28;20584;-79
2023/09/23 03:15:14;;;;;;;8.55;7.53;;;12.40;99.90;;;;;;5003722;28;20053;-80
2023/09/23 03:17:50;;;;;;;8.82;7.93;;;12.40;99.90;;;;;;5004464;28;20026;-79
2023/09/23 03:20:21;;;;;;;;;;;12.40;99.90;;;;;;5007193;28;20128;-80
2023/09/23 03:22:50;;;;;;;9.55;8.55;;;12.40;99.90;;;;;;5012955;28;19905;-80
2023/09/23 03:25:18;;;;;;;11.82;9.10;;;12.50;99.90;;;;;;5011245;28;20036;-80
2023/09/23 03:27:43;;;;;;;8.60;7.70;;;12.50;99.90;;;;;;5004337;28;20490;-79
2023/09/23 03:30:12;;;;;;;8.18;7.38;;;12.50;99.90;;;;;;5012145;28;20033;-80
2023/09/23 03:32:38;;;;;;;8.63;7.60;;;12.50;99.90;;;;;;5003746;28;20574;-80
2023/09/23 03:35:04;;;;;;;10.88;7.13;;;12.50;99.90;;;;;;5013600;28;20022;-80
2023/09/23 03:37:29;;;;;;;7.85;6.32;;;12.50;99.90;;;;;;5008585;28;20393;-79
2023/09/23 03:39:55;;;;;;;8.95;8.20;;;12.50;99.90;;;;;;5002840;28;20028;-80
2023/09/23 03:42:21;;;;;;;8.55;7.75;;;12.50;99.90;;;;;;5004228;28;20118;-80
2023/09/23 03:44:47;;;;;;;9.13;8.23;;;12.50;99.90;;;;;;5005587;28;20121;-79
2023/09/23 03:47:12;;;;;;;9.23;8.32;;;12.50;99.90;;;;;;5009188;28;20104;-79
2023/09/23 03:49:38;;;;;;;7.90;7.10;;;12.50;99.90;;;;;;5007399;28;20025;-80
2023/09/23 03:52:05;;;;;;;9.43;8.30;;;12.50;99.90;;;;;;5006125;28;20045;-80
2023/09/23 03:54:33;;;;;;;9.82;8.45;;;12.50;99.90;;;;;;5011963;28;20017;-80
2023/09/23 03:56:59;;;;;;;11.25;9.73;;;12.50;99.90;;;;;;5002787;28;20018;-79
2023/09/23 03:59:26;;;;;;;9.95;8.85;;;12.50;99.90;;;;;;5004534;28;20026;-79
2023/09/23 04:01:52;;;;;;;9.52;8.30;;;12.50;99.90;;;;;;4996481;28;20028;-79
2023/09/23 04:04:17;;;;;;;9.43;8.52;;;12.60;99.90;;;;;;5003059;28;20022;-80
2023/09/23 04:06:43;;;;;;;10.85;9.20;;;12.60;99.90;;;;;;5009055;28;20076;-80
2023/09/23 04:09:13;;;;;;;12.07;10.40;;;12.60;99.90;;;;;;5005111;28;20037;-80
2023/09/23 04:11:39;;;;;;;11.50;9.68;;;12.60;99.90;;;;;;5003993;28;20084;-81
2023/09/23 04:14:05;;;;;;;11.75;10.55;;;12.60;99.90;;;;;;5006576;28;20453;-79
2023/09/23 04:16:31;;;;;;;12.63;11.32;;;12.60;99.90;;;;;;5007333;28;20014;-79
2023/09/23 04:18:56;;;;;;;12.30;11.00;;;12.60;99.90;;;;;;5000976;28;20026;-80
2023/09/23 04:21:24;;;;;;;13.07;11.32;;;12.70;99.90;;;;;;5012672;28;20049;-80
2023/09/23 04:23:52;;;;;;;12.23;10.80;;;12.70;99.90;;;;;;5006508;28;20030;-79
2023/09/23 04:26:21;;;;;;;13.27;11.88;;;12.70;99.90;;;;;;5007538;28;20018;-80
2023/09/23 04:28:48;;;;;;;14.38;11.18;;;12.70;99.90;;;;;;5006142;28;20075;-80
2023/09/23 04:31:13;;;;;;;11.95;9.90;;;12.70;99.90;;;;;;5010323;28;20517;-79
2023/09/23 04:33:39;;;;;;;13.23;11.68;;;12.70;99.90;;;;;;5013190;28;20055;-80
2023/09/23 04:36:09;;;;;;;13.40;11.50;;;12.70;99.90;;;;;;5010061;28;20072;-80
2023/09/23 04:38:34;;;;;;;13.80;11.55;;;12.70;99.90;;;;;;5005341;28;20038;-79
2023/09/23 04:41:01;;;;;;;12.80;10.60;;;12.70;99.90;;;;;;5008183;28;20042;-80
2023/09/23 04:43:30;;;;;;;11.90;10.30;;;12.70;99.90;;;;;;5036230;28;20113;-80
2023/09/23 04:45:56;;;;;;;14.05;11.95;;;12.70;99.90;;;;;;5010458;28;20101;-81
2023/09/23 04:48:24;;;;;;;14.90;12.27;;;12.70;99.90;;;;;;5009094;28;20088;-80
2023/09/23 04:50:52;;;;;;;13.95;11.75;;;12.70;99.90;;;;;;5004162;28;20017;-79
2023/09/23 04:53:18;;;;;;;12.50;11.30;;;12.70;99.90;;;;;;4999974;28;20125;-79
2023/09/23 04:55:45;;;;;;;16.92;12.50;;;12.70;99.90;;;;;;5001498;28;20754;-80
2023/09/23 04:58:12;;;;;;;15.90;13.05;;;12.80;99.90;;;;;;5002344;28;20037;-79
2023/09/23 05:00:38;;;;;;;15.05;12.40;;;12.70;99.90;;;;;;4999037;28;20025;-80
2023/09/23 05:03:05;;;;;;;12.57;11.27;;;12.80;99.90;;;;;;5003794;28;20018;-79
2023/09/23 05:05:31;;;;;;;14.13;11.80;;;12.80;99.90;;;;;;5006334;28;20379;-79
2023/09/23 05:07:59;;;;;;;13.13;11.50;;;12.80;99.90;;;;;;5002890;28;20101;-80
2023/09/23 05:10:26;;;;;;;11.25;10.15;;;12.80;99.90;;;;;;5009851;28;20454;-79
2023/09/23 05:12:56;;;;;;;13.18;10.23;;;12.80;99.90;;;;;;5003874;28;20037;-80
2023/09/23 05:15:23;;;;;;;14.15;10.90;;;12.80;99.90;;;;;;5008792;28;20021;-79
2023/09/23 05:17:49;;;;;;;12.38;10.27;;;12.80;99.90;;;;;;5005529;28;20018;-80
2023/09/23 05:20:25;;;;;;;14.05;10.18;;;12.80;99.90;;;;;;4996482;28;20454;-79
2023/09/23 05:22:51;;;;;;;14.50;12.05;;;12.80;99.90;;;;;;5011251;28;20022;-80
2023/09/23 05:25:17;;;;;;;11.20;10.10;;;12.80;99.90;;;;;;5004982;28;20095;-80
2023/09/23 05:27:43;;;;;;;11.90;10.07;;;12.80;99.90;;;;;;5007146;28;20061;-80
2023/09/23 05:30:10;;;;;;;11.45;9.95;;;12.80;99.90;;;;;;5004904;28;20061;-80
2023/09/23 05:32:39;;;;;;;12.98;10.40;;;12.80;99.90;;;;;;5005995;28;20022;-79
2023/09/23 05:35:11;;;;;;;12.30;10.75;;;12.80;99.90;;;;;;5004329;28;20045;-79
2023/09/23 05:37:38;;;;;;;12.65;11.27;;;12.80;99.90;;;;;;5007271;28;20029;-80
2023/09/23 05:40:10;;;;;;;12.95;11.05;;;12.80;99.90;;;;;;5003710;28;20065;-80
2023/09/23 05:42:36;;;;;;;14.55;12.38;;;12.80;99.90;;;;;;5012506;28;20033;-80
2023/09/23 05:45:05;;;;;;;16.35;14.07;;;12.80;99.90;;;;;;5004249;28;20076;-79
2023/09/23 05:47:30;;;;;;;16.23;14.45;;;12.90;99.90;;;;;;5005309;28;20072;-81
2023/09/23 05:49:56;;;;;;;14.82;13.32;;;12.80;99.90;;;;;;5003495;28;20541;-80
2023/09/23 05:52:21;;;;;;;16.80;15.00;;;12.80;99.90;;;;;;5004159;28;20123;-81
2023/09/23 05:54:48;;;;;;;16.88;14.13;;;12.80;99.90;;;;;;5001198;28;20129;-81
2023/09/23 05:57:13;;;;;;;15.55;13.27;;;12.80;99.90;;;;;;5004690;28;20044;-80
2023/09/23 05:59:39;;;;;;;17.55;14.57;;;12.80;99.90;;;;;;5003174;28;20129;-80
2023/09/23 06:02:08;;;;;;;15.77;13.23;;;12.80;99.90;;;;;;5005010;28;20030;-80
2023/09/23 06:04:34;;;;;;;15.05;12.55;;;12.80;99.90;;;;;;4998730;28;20026;-79
2023/09/23 06:07:00;;;;;;;14.88;12.77;;;12.80;99.90;;;;;;5004717;28;20433;-80
2023/09/23 06:09:26;;;;;;;15.32;13.55;;;12.80;99.90;;;;;;5006752;28;20032;-80
2023/09/23 06:11:52;;;;;;;14.23;12.73;;;12.80;99.90;;;;;;5006969;28;20026;-80
2023/09/23 06:14:17;;;;;;;13.82;11.85;;;12.80;99.90;;;;;;5005148;28;20116;-80
2023/09/23 06:16:44;;;;;;;14.77;13.10;;;12.90;99.90;;;;;;5007709;28;20563;-80
2023/09/23 06:19:09;;;;;;;19.27;13.52;;;12.90;99.90;;;;;;5007616;28;20441;-81
2023/09/23 06:21:35;;;;;;;14.27;12.77;;;12.90;99.90;;;;;;5017287;28;20022;-80
2023/09/23 06:24:00;;;;;;;17.52;13.30;;;12.90;99.90;;;;;;5013724;28;20025;-80
2023/09/23 06:26:26;;;;;;;14.80;12.50;;;12.80;99.90;;;;;;5006834;28;20029;-80
2023/09/23 06:28:51;;;;;;;14.07;12.40;;;12.90;99.90;;;;;;5012079;28;20035;-81
2023/09/23 06:31:17;;;;;;;12.50;11.05;;;12.80;99.90;;;;;;5006358;28;20026;-81
2023/09/23 06:33:42;;;;;;;12.15;10.85;;;12.90;99.90;;;;;;5007698;28;20018;-81
2023/09/23 06:36:08;;;;;;;13.38;11.43;;;12.90;99.90;;;;;;5006894;28;20556;-80
2023/09/23 06:38:34;;;;;;;13.63;11.38;;;12.80;99.90;;;;;;5010047;28;20477;-81
2023/09/23 06:40:59;;;;;;;13.05;10.65;;;12.80;99.90;;;;;;5007216;28;20068;-81
2023/09/23 06:43:25;;;;;;;12.98;10.98;;;12.80;99.90;;;;;;5013099;28;20029;-81
2023/09/23 06:45:58;;;;;;;13.35;10.73;;;12.80;99.90;;;;;;5010599;28;20516;-80
2023/09/23 06:48:25;;;;;;;11.93;10.50;;;12.80;99.90;;;;;;5014214;28;20033;-81
2023/09/23 06:51:00;;;;;;;11.35;10.15;;;12.80;99.90;;;;;;5015208;28;20130;-81
2023/09/23 06:53:27;;;;;;;12.30;10.32;;;12.80;99.90;;;;;;5004909;28;20096;-81
2023/09/23 06:55:52;;;;;;;11.75;9.50;;;12.90;99.90;;;;;;5008514;28;20081;-81
2023/09/23 06:58:18;;;;;;;11.73;9.30;;;12.90;99.90;;;;;;5009691;28;20017;-82
2023/09/23 07:00:44;;;;;;;11.95;9.70;;;12.90;99.90;;;;;;5009178;28;20085;-81
2023/09/23 07:03:09;;;;;;;11.38;9.23;;;12.90;99.90;;;;;;5002951;28;20037;-81
2023/09/23 07:05:35;;;;;;;9.70;8.70;;;12.90;99.90;;;;;;5000209;28;20576;-81
2023/09/23 07:08:01;;;;;;;10.88;8.80;;;12.90;99.90;;;;;;5007823;28;20009;-82
2023/09/23 07:10:27;;;;;;;9.65;8.55;;;12.90;99.90;;;;;;5003548;28;20049;-82
2023/09/23 07:12:53;;;;;;;8.60;7.68;;;12.90;99.90;;;;;;5006347;28;20022;-82
2023/09/23 07:15:19;;;;;;;8.32;6.60;;;13.00;99.90;;;;;;5005998;28;20033;-83
2023/09/23 07:17:44;;;;;;;8.40;7.32;;;13.00;99.90;;;;;;5005946;28;20018;-82
2023/09/23 07:20:10;;;;;;;8.02;7.22;;;13.10;99.90;;;;;;4999979;28;20180;-82
2023/09/23 07:22:36;;;;;;;7.68;6.82;;;13.00;99.90;;;;;;5002063;28;20498;-81
2023/09/23 07:25:03;;;;;;;7.72;6.45;;;13.10;99.90;;;;;;5016232;28;20037;-82
2023/09/23 07:27:29;;;;;;;7.70;6.60;;;13.10;99.90;;;;;;5006403;28;20033;-83
2023/09/23 07:29:54;;;;;;;7.22;6.45;;;13.10;99.90;;;;;;5005075;28;20030;-82
2023/09/23 07:32:20;;;;;;;5.93;5.32;;;13.10;99.90;;;;;;5019190;28;20029;-81
2023/09/23 07:34:46;;;;;;;7.82;5.60;;;13.10;99.90;;;;;;5009722;28;20273;-82
2023/09/23 07:37:13;;;;;;;6.18;5.55;;;13.20;99.90;;;;;;5015825;28;20410;-81
2023/09/23 07:39:39;;;;;;;5.90;5.30;;;13.20;99.90;;;;;;5014377;28;20456;-82
2023/09/23 07:42:05;;;;;;;5.10;4.60;;;13.20;99.90;;;;;;5010748;28;20038;-82
2023/09/23 07:44:30;;;;;;;4.68;4.22;;;13.30;99.90;;;;;;5014723;28;20080;-81
2023/09/23 07:46:56;;;;;;;5.45;4.45;;;13.30;99.90;;;;;;5007446;28;20032;-82
2023/09/23 07:49:21;;;;;;;5.07;4.57;;;13.40;99.90;;;;;;5010670;28;20521;-83
2023/09/23 07:51:48;;;;;;;3.85;3.55;;;13.40;99.90;;;;;;5011889;28;20097;-82
2023/09/23 07:54:14;;;;;;;4.53;4.13;;;13.40;99.90;;;;;;5013526;28;20056;-81
2023/09/23 07:56:39;;;;;;;3.75;3.35;;;13.50;99.90;;;;;;5009215;28;20122;-82
2023/09/23 07:59:06;;;;;;;3.80;3.40;;;13.60;99.90;;;;;;5015240;28;20464;-83
2023/09/23 08:01:31;;;;;;;4.82;3.92;;;13.80;99.90;;;;;;5008510;28;20019;-83
2023/09/23 08:03:57;;;;;;;3.83;3.42;;;13.80;99.90;;;;;;5008927;28;20088;-82
2023/09/23 08:06:23;;;;;;;3.33;3.05;;;13.80;99.90;;;;;;5010760;28;20116;-81
2023/09/23 08:08:49;;;;;;;2.95;2.75;;;13.80;99.90;;;;;;5012170;28;20068;-83
2023/09/23 08:11:14;;;;;;;3.15;2.85;;;13.80;99.90;;;;;;5015440;28;20041;-83
2023/09/23 08:13:40;;;;;;;3.50;2.55;;;13.80;99.90;;;;;;5016690;28;20022;-82
2023/09/23 08:16:05;;;;;;;5.07;3.42;;;13.80;99.90;;;;;;5008701;28;20027;-83
2023/09/23 08:18:31;;;;;;;4.38;3.17;;;13.90;99.90;;;;;;5010666;28;20493;-84
2023/09/23 08:21:00;;;;;;;2.70;2.50;;;14.10;99.90;;;;;;5007696;28;20029;-81
2023/09/23 08:23:26;;;;;;;3.58;2.60;;;14.10;99.90;;;;;;5009258;28;20010;-82
2023/09/23 08:25:53;;;;;;;3.90;2.72;;;14.10;99.90;;;;;;5002179;28;20057;-82
2023/09/23 08:28:19;;;;;;;2.85;2.47;;;14.00;99.90;;;;;;5003971;28;20018;-81
2023/09/23 08:30:46;;;;;;;3.08;2.67;;;14.00;99.90;;;;;;5012718;28;20026;-78
2023/09/23 08:33:12;;;;;;;5.13;2.90;;;13.90;99.90;;;;;;5006149;28;20034;-81
2023/09/23 08:35:38;;;;;;;2.88;2.67;;;13.90;99.90;;;;;;5014806;28;20033;-82
2023/09/23 08:38:04;;;;;;;2.75;2.50;;;13.90;99.90;;;;;;5013642;28;20448;-82
2023/09/23 08:40:34;;;;;;;2.53;2.33;;;14.00;99.90;;;;;;5014319;28;20033;-81
2023/09/23 08:43:04;;;;;;;5.50;3.05;;;14.00;99.90;;;;;;5010745;28;20026;-81
2023/09/23 08:45:30;;;;;;;3.80;2.50;;;14.10;99.90;;;;;;5011279;28;20037;-81
2023/09/23 08:47:57;;;;;;;2.97;2.53;;;14.00;99.90;;;;;;5010659;28;20042;-80
2023/09/23 08:50:24;;;;;;;4.43;2.97;;;14.00;99.90;;;;;;5012020;28;20027;-81
2023/09/23 08:52:51;;;;;;;2.40;2.20;;;14.00;99.90;;;;;;5007104;28;20069;-80
2023/09/23 08:55:18;;;;;;;2.38;2.17;;;13.90;99.90;;;;;;5011846;28;20018;-81
2023/09/23 08:57:43;;;;;;;3.50;2.05;;;13.90;99.90;;;;;;5007275;28;20105;-80
2023/09/23 09:00:10;;;;;;;2.63;2.03;;;13.90;99.90;;;;;;5017778;28;20321;-79
2023/09/23 09:02:36;;;;;;;2.80;2.60;;;13.90;99.90;;;;;;5021163;28;20104;-79
2023/09/23 09:05:02;;;;;;;2.45;2.25;;;13.90;99.90;;;;;;5014499;28;20064;-80
2023/09/23 09:07:35;;;;;;;2.85;2.60;;;14.00;99.90;;;;;;5018135;28;20445;-80
2023/09/23 09:10:02;;;;;;;3.17;2.10;;;14.00;99.90;;;;;;5014565;28;20095;-81
2023/09/23 09:12:28;;;;;;;2.42;2.22;;;14.00;99.90;;;;;;5010110;28;20022;-81
2023/09/23 09:14:54;;;;;;;5.88;2.40;;;14.10;99.90;;;;;;5019687;28;20021;-80
2023/09/23 09:17:20;;;;;;;4.47;2.70;;;14.20;99.90;;;;;;5022929;28;20104;-81
2023/09/23 09:19:46;;;;;;;3.17;2.50;;;14.10;99.90;;;;;;5018266;28;20420;-80
2023/09/23 09:22:14;;;;;;;2.47;2.25;;;14.10;99.90;;;;;;5008482;28;20302;-81
2023/09/23 09:24:40;;;;;;;2.65;2.28;;;14.20;99.90;;;;;;5010050;28;20041;-80
2023/09/23 09:27:11;;;;;;;3.13;2.53;;;14.20;99.90;;;;;;5010718;28;20025;-80
2023/09/23 09:29:37;;;;;;;2.38;1.98;;;14.30;99.90;;;;;;5012670;28;20101;-79
2023/09/23 09:32:06;;;;;;;3.53;2.63;;;14.30;99.90;;;;;;5010932;28;20022;-80
2023/09/23 09:34:34;;;;;;;2.72;2.47;;;14.40;99.90;;;;;;5006938;28;20018;-80
2023/09/23 09:37:03;;;;;;;2.38;2.17;;;14.50;99.90;;;;;;5007722;28;20034;-80
2023/09/23 09:39:32;;;;;;;3.08;2.47;;;14.50;99.90;;;;;;5007251;28;20021;-81
2023/09/23 09:42:02;;;;;;;3.63;3.20;;;14.60;99.90;;;;;;5002243;28;20066;-80
2023/09/23 09:44:29;;;;;;;3.33;2.50;;;14.70;99.90;;;;;;5002602;28;20017;-80
2023/09/23 09:46:56;;;;;;;3.78;2.60;;;14.80;99.90;;;;;;5006991;28;20041;-81
2023/09/23 09:49:23;;;;;;;2.53;2.33;;;14.80;99.90;;;;;;5004668;28;20137;-80
2023/09/23 09:51:49;;;;;;;2.78;2.58;;;14.80;99.90;;;;;;5009086;28;20207;-80
2023/09/23 09:54:19;;;;;;;2.58;2.35;;;14.90;99.90;;;;;;5009457;28;20494;-80
2023/09/23 09:56:47;;;;;;;3.50;2.55;;;15.00;99.90;;;;;;5004664;28;20026;-80
2023/09/23 09:59:27;;;;;;;2.70;2.50;;;15.10;99.90;;;;;;4998960;28;20505;-80
2023/09/23 10:01:57;;;;;;;2.95;2.15;;;15.10;99.90;;;;;;4998208;28;20030;-78
2023/09/23 10:04:23;;;;;;;4.55;2.67;;;15.20;99.90;;;;;;4999473;28;20026;-80
2023/09/23 10:06:55;;;;;;;2.67;2.38;;;15.30;99.90;;;;;;5000449;28;20066;-79
2023/09/23 10:09:28;;;;;;;2.20;2.00;;;15.40;99.90;;;;;;4994466;28;20030;-79
2023/09/23 10:11:55;;;;;;;5.18;1.92;;;15.40;99.90;;;;;;5000474;28;20267;-80
2023/09/23 10:14:22;;;;;;;1.83;1.70;;;15.40;99.90;;;;;;4997081;28;20401;-80
2023/09/23 10:16:59;;;;;;;2.15;1.95;;;15.40;99.90;;;;;;5002245;28;20113;-80
2023/09/23 10:19:32;;;;;;;2.72;1.70;;;15.30;99.90;;;;;;4998509;28;20048;-79
2023/09/23 10:22:21;;;;;;;2.50;1.77;;;15.50;99.90;;;;;;5005482;28;20504;-79
2023/09/23 10:25:06;;;;;;;2.38;1.70;;;15.60;99.90;;;;;;5004264;28;20053;-80
2023/09/23 10:27:33;;;;;;;2.03;1.80;;;15.60;99.90;;;;;;4992430;28;20022;-80
2023/09/23 10:30:00;;;;;;;1.48;1.38;;;15.70;99.90;;;;;;5001011;28;20045;-80
2023/09/23 10:32:26;;;;;;;1.65;1.45;;;15.80;99.90;;;;;;5003180;28;20030;-78
2023/09/23 10:34:55;;;;;;;1.52;1.42;;;15.70;99.90;;;;;;5007145;28;20048;-79
2023/09/23 10:37:41;;;;;;;2.10;1.30;;;15.70;99.90;;;;;;5008442;28;20018;-80
2023/09/23 10:40:13;;;;;;;1.90;1.42;;;15.80;99.90;;;;;;5016810;28;20006;-79
2023/09/23 10:42:46;;;;;;;1.50;1.40;;;15.80;99.90;;;;;;5017204;28;20483;-79
2023/09/23 10:45:13;;;;;;;1.40;1.30;;;15.90;99.90;;;;;;4996857;28;20432;-80
2023/09/23 10:47:40;;;;;;;1.25;0.98;;;16.00;99.90;;;;;;5010727;28;20466;-80
2023/09/23 10:50:07;;;;;;;1.70;1.40;;;15.90;99.90;;;;;;4997069;28;20029;-79
2023/09/23 10:52:34;;;;;;;1.73;1.20;;;16.00;99.90;;;;;;5008941;28;20021;-80
2023/09/23 10:54:59;;;;;;;3.38;1.15;;;16.00;99.90;;;;;;5001031;28;20034;-80
2023/09/23 10:57:26;;;;;;;2.33;1.83;;;16.00;99.90;;;;;;5001267;28;20022;-80
2023/09/23 10:59:52;;;;;;;1.35;1.25;;;16.00;99.90;;;;;;5014114;28;20370;-80
2023/09/23 11:02:25;;;;;;;2.00;1.20;;;16.00;99.90;;;;;;5010255;28;20077;-80
2023/09/23 11:04:54;;;;;;;1.88;1.30;;;16.10;99.90;;;;;;5001703;28;20084;-80
2023/09/23 11:07:20;;;;;;;3.15;1.40;;;16.10;99.90;;;;;;5001870;28;20289;-80
2023/09/23 11:09:47;;;;;;;1.58;1.20;;;16.10;99.90;;;;;;5006941;28;20506;-80
2023/09/23 11:12:16;;;;;;;3.72;1.83;;;16.20;99.90;;;;;;5000787;28;20464;-79
2023/09/23 11:14:45;;;;;;;2.17;1.98;;;16.30;99.90;;;;;;5004043;28;20089;-80
2023/09/23 11:17:29;;;;;;;2.60;2.00;;;16.40;99.90;;;;;;5008317;28;20014;-78
2023/09/23 11:19:56;;;;;;;2.35;1.52;;;16.60;99.90;;;;;;5004395;28;20533;-78
2023/09/23 11:22:26;;;;;;;1.55;1.45;;;16.60;99.90;;;;;;5004148;28;20363;-80
2023/09/23 11:24:53;;;;;;;2.58;1.27;;;16.60;99.90;;;;;;5008496;28;20478;-80
2023/09/23 11:27:19;;;;;;;1.70;1.60;;;16.60;99.90;;;;;;5001781;28;20026;-78
2023/09/23 11:29:44;;;;;;;2.50;2.30;;;16.50;99.90;;;;;;4999106;28;20397;-78
2023/09/23 11:32:10;;;;;;;2.63;2.05;;;16.50;99.90;;;;;;5002675;28;20014;-79
2023/09/23 11:34:36;;;;;;;2.60;2.35;;;16.40;99.90;;;;;;5004485;28;20413;-80
2023/09/23 11:37:02;;;;;;;2.35;2.20;;;16.40;99.90;;;;;;5004612;28;20115;-79
2023/09/23 11:39:37;;;;;;;3.33;3.08;;;16.50;99.90;;;;;;5014247;28;20534;-79
2023/09/23 11:42:04;;;;;;;3.38;3.08;;;16.70;99.90;;;;;;5003935;28;20279;-78
2023/09/23 11:44:29;;;;;;;3.05;2.85;;;16.80;99.90;;;;;;5000417;28;20099;-80
2023/09/23 11:46:55;;;;;;;4.97;4.47;;;16.90;99.90;;;;;;4998897;28;20034;-78
2023/09/23 11:49:21;;;;;;;7.05;5.15;;;16.90;99.90;;;;;;5009375;28;20027;-78
2023/09/23 11:51:46;;;;;;;5.85;5.35;;;16.80;99.90;;;;;;5002965;28;20030;-78
2023/09/23 11:54:12;;;;;;;6.47;5.97;;;16.70;99.90;;;;;;5006599;28;20670;-77
2023/09/23 11:56:38;;;;;;;5.53;5.13;;;16.60;99.90;;;;;;5005844;28;20034;-79
2023/09/23 11:59:03;;;;;;;6.28;5.68;;;16.60;99.90;;;;;;5002384;28;20037;-78
2023/09/23 12:01:29;;;;;;;6.15;5.65;;;16.50;99.90;;;;;;5004871;28;20036;-78
2023/09/23 12:03:58;;;;;;;6.45;5.95;;;16.40;99.90;;;;;;5011901;28;20524;-77
2023/09/23 12:06:34;;;;;;;7.95;7.15;;;16.50;99.90;;;;;;5009044;28;20068;-77
2023/09/23 12:09:01;;;;;;;7.28;6.68;;;16.60;99.90;;;;;;5005480;28;20107;-78
2023/09/23 12:11:26;;;;;;;7.15;6.55;;;16.50;99.90;;;;;;5002143;28;20042;-77
2023/09/23 12:13:53;;;;;;;7.70;7.00;;;16.50;99.90;;;;;;5001420;28;20038;-79
2023/09/23 12:16:18;;;;;;;8.52;7.70;;;16.50;99.90;;;;;;5000878;28;20160;-79
2023/09/23 12:18:47;;;;;;;7.47;6.78;;;16.50;99.90;;;;;;4999459;28;20022;-78
2023/09/23 12:21:14;;;;;;;7.80;6.60;;;16.50;99.90;;;;;;5011464;28;20049;-79
2023/09/23 12:23:41;;;;;;;6.93;6.32;;;16.50;99.90;;;;;;5005972;28;20025;-78
2023/09/23 12:26:08;;;;;;;6.75;6.15;;;16.40;99.90;;;;;;5005149;28;20668;-77
2023/09/23 12:28:33;;;;;;;5.65;5.07;;;16.40;99.90;;;;;;5003185;28;20026;-78
2023/09/23 12:30:59;;;;;;;6.93;6.25;;;16.40;99.90;;;;;;5001556;28;20033;-78
2023/09/23 12:33:24;;;;;;;6.80;4.88;;;16.50;99.90;;;;;;4998179;28;20609;-77
2023/09/23 12:35:50;;;;;;;5.80;5.30;;;16.50;99.90;;;;;;5006257;28;20018;-79
2023/09/23 12:38:15;;;;;;;6.90;6.30;;;16.60;99.90;;;;;;4999047;28;20050;-78
2023/09/23 12:40:41;;;;;;;7.97;7.10;;;16.70;99.90;;;;;;5003521;28;20026;-79
2023/09/23 12:43:06;;;;;;;7.53;6.72;;;16.80;99.90;;;;;;5010939;28;20021;-79